createdAt,value
2023-05-14T00:02:19.419Z,2.05
2023-05-14T00:05:05.473Z,2.05
2023-05-14T00:07:51.003Z,3.15
2023-05-14T00:10:36.767Z,1.63
2023-05-14T00:13:22.105Z,1.40
2023-05-14T00:16:07.817Z,2.08
2023-05-14T00:18:53.544Z,2.22
2023-05-14T00:21:39.065Z,1.52
2023-05-14T00:24:24.908Z,1.73
2023-05-14T00:27:10.262Z,2.33
2023-05-14T00:29:56.171Z,1.50
2023-05-14T00:32:41.597Z,1.77
2023-05-14T00:35:27.129Z,1.80
2023-05-14T00:38:17.160Z,1.42
2023-05-14T00:41:02.602Z,1.98
2023-05-14T00:43:48.219Z,1.95
2023-05-14T00:46:33.967Z,1.40
2023-05-14T00:49:19.652Z,2.67
2023-05-14T00:52:05.402Z,2.38
2023-05-14T00:54:50.998Z,1.45
2023-05-14T00:57:37.019Z,0.82
2023-05-14T01:00:23.027Z,1.05
2023-05-14T01:03:09.197Z,2.47
2023-05-14T01:06:18.945Z,0.95
2023-05-14T01:09:27.060Z,1.95
2023-05-14T01:12:19.909Z,2.03
2023-05-14T01:15:12.751Z,1.90
2023-05-14T01:18:09.649Z,2.05
2023-05-14T01:20:56.174Z,1.42
2023-05-14T01:23:41.556Z,1.67
2023-05-14T01:26:27.324Z,2.40
2023-05-14T01:29:15.764Z,1.70
2023-05-14T01:32:01.862Z,1.58
2023-05-14T01:34:47.532Z,1.75
2023-05-14T01:37:33.182Z,1.75
2023-05-14T01:40:18.820Z,1.30
2023-05-14T01:43:05.321Z,1.67
2023-05-14T01:45:50.737Z,1.92
2023-05-14T01:48:38.010Z,1.95
2023-05-14T01:51:23.574Z,1.33
2023-05-14T01:54:09.210Z,1.15
2023-05-14T01:56:54.951Z,1.88
2023-05-14T01:59:40.448Z,1.83
2023-05-14T02:02:26.132Z,2.15
2023-05-14T02:05:12.673Z,1.10
2023-05-14T02:07:57.842Z,1.80
2023-05-14T02:10:43.553Z,1.60
2023-05-14T02:13:29.370Z,1.90
2023-05-14T02:16:14.750Z,1.80
2023-05-14T02:19:00.581Z,1.75
2023-05-14T02:21:45.912Z,1.65
2023-05-14T02:24:31.416Z,2.30
2023-05-14T02:27:17.224Z,2.67
2023-05-14T02:30:03.779Z,2.15
2023-05-14T02:32:49.538Z,1.35
2023-05-14T02:35:35.408Z,1.98
2023-05-14T02:38:20.844Z,1.50
2023-05-14T02:41:07.239Z,1.70
2023-05-14T02:43:53.835Z,1.98
2023-05-14T02:46:40.033Z,0.60
2023-05-14T02:49:25.756Z,1.63
2023-05-14T02:52:11.453Z,2.65
2023-05-14T02:54:57.006Z,1.70
2023-05-14T02:57:42.557Z,1.38
2023-05-14T03:00:28.081Z,1.38
2023-05-14T03:03:14.256Z,0.93
2023-05-14T03:06:00.215Z,2.25
2023-05-14T03:08:45.915Z,1.08
2023-05-14T03:11:31.171Z,1.63
2023-05-14T03:14:16.742Z,1.08
2023-05-14T03:17:02.566Z,2.42
2023-05-14T03:19:48.256Z,1.38
2023-05-14T03:22:34.011Z,1.60
2023-05-14T03:25:19.384Z,1.85
2023-05-14T03:28:05.725Z,1.10
2023-05-14T03:30:52.026Z,1.95
2023-05-14T03:33:37.263Z,1.67
2023-05-14T03:36:22.827Z,2.40
2023-05-14T03:39:09.593Z,2.17
2023-05-14T03:41:57.285Z,1.25
2023-05-14T03:44:43.117Z,1.70
2023-05-14T03:47:32.297Z,1.40
2023-05-14T03:50:19.830Z,1.77
2023-05-14T03:53:05.031Z,1.17
2023-05-14T03:55:50.725Z,1.17
2023-05-14T03:58:36.292Z,2.58
2023-05-14T04:01:22.063Z,2.60
2023-05-14T04:04:07.531Z,2.05
2023-05-14T04:06:53.504Z,2.90
2023-05-14T04:09:39.224Z,1.80
2023-05-14T04:12:24.975Z,0.90
2023-05-14T04:15:10.973Z,1.20
2023-05-14T04:17:56.853Z,1.50
2023-05-14T04:20:42.175Z,1.20
2023-05-14T04:23:27.805Z,0.95
2023-05-14T04:26:13.590Z,1.58
2023-05-14T04:29:02.994Z,2.15
2023-05-14T04:31:49.883Z,2.42
2023-05-14T04:34:35.020Z,2.33
2023-05-14T04:37:20.669Z,1.00
2023-05-14T04:40:08.160Z,1.77
2023-05-14T04:42:53.706Z,2.83
2023-05-14T04:45:41.137Z,2.00
2023-05-14T04:48:26.936Z,2.42
2023-05-14T04:51:12.492Z,2.30
2023-05-14T04:53:57.802Z,1.52
2023-05-14T04:56:43.532Z,1.23
2023-05-14T04:59:32.025Z,1.08
2023-05-14T05:02:17.687Z,1.15
2023-05-14T05:05:04.244Z,1.75
2023-05-14T05:07:49.969Z,1.80
2023-05-14T05:10:35.679Z,2.67
2023-05-14T05:13:21.168Z,2.65
2023-05-14T05:16:06.923Z,1.60
2023-05-14T05:18:52.570Z,2.00
2023-05-14T05:21:40.377Z,1.80
2023-05-14T05:24:25.966Z,1.38
2023-05-14T05:27:11.359Z,2.25
2023-05-14T05:29:56.572Z,2.22
2023-05-14T05:32:42.242Z,1.88
2023-05-14T05:35:27.652Z,2.17
2023-05-14T05:38:13.058Z,3.00
2023-05-14T05:40:58.372Z,2.75
2023-05-14T05:43:43.644Z,2.95
2023-05-14T05:46:29.376Z,2.17
2023-05-14T05:49:14.677Z,2.00
2023-05-14T05:52:00.216Z,1.60
2023-05-14T05:54:45.836Z,2.75
2023-05-14T05:57:31.460Z,2.63
2023-05-14T06:00:17.421Z,1.83
2023-05-14T06:03:02.891Z,2.33
2023-05-14T06:05:48.619Z,1.80
2023-05-14T06:08:34.170Z,1.67
2023-05-14T06:11:19.526Z,2.15
2023-05-14T06:14:05.538Z,1.58
2023-05-14T06:16:50.897Z,3.47
2023-05-14T06:19:36.513Z,2.92
2023-05-14T06:22:22.109Z,2.58
2023-05-14T06:25:08.169Z,2.67
2023-05-14T06:27:53.609Z,2.65
2023-05-14T06:30:39.081Z,3.13
2023-05-14T06:33:31.044Z,2.08
2023-05-14T06:36:16.802Z,2.90
2023-05-14T06:39:02.304Z,2.53
2023-05-14T06:41:48.007Z,2.70
2023-05-14T06:44:33.800Z,1.65
2023-05-14T06:47:19.215Z,3.45
2023-05-14T06:50:05.376Z,3.22
2023-05-14T06:52:50.888Z,3.85
2023-05-14T06:55:36.408Z,3.63
2023-05-14T06:58:24.239Z,3.53
2023-05-14T07:01:09.836Z,3.25
2023-05-14T07:03:55.193Z,3.78
2023-05-14T07:06:40.757Z,2.85
2023-05-14T07:09:26.431Z,3.55
2023-05-14T07:12:12.087Z,2.80
2023-05-14T07:14:57.793Z,2.25
2023-05-14T07:17:46.113Z,2.40
2023-05-14T07:20:31.451Z,3.10
2023-05-14T07:23:19.209Z,2.90
2023-05-14T07:26:06.290Z,3.15
2023-05-14T07:28:51.971Z,2.95
2023-05-14T07:31:37.790Z,3.00
2023-05-14T07:34:23.413Z,3.60
2023-05-14T07:37:09.261Z,3.00
2023-05-14T07:39:54.857Z,2.15
2023-05-14T07:42:40.972Z,3.30
2023-05-14T07:45:26.169Z,3.03
2023-05-14T07:48:12.164Z,2.75
2023-05-14T07:50:57.964Z,1.50
2023-05-14T07:53:43.475Z,2.65
2023-05-14T07:56:29.140Z,1.48
2023-05-14T07:59:14.913Z,3.17
2023-05-14T08:02:01.138Z,3.50
2023-05-14T08:04:46.883Z,2.88
2023-05-14T08:07:33.808Z,2.38
2023-05-14T08:10:19.542Z,3.65
2023-05-14T08:13:05.053Z,2.95
2023-05-14T08:15:50.699Z,3.67
2023-05-14T08:18:36.390Z,3.08
2023-05-14T08:21:24.027Z,4.10
2023-05-14T08:24:09.637Z,2.65
2023-05-14T08:26:56.049Z,2.90
2023-05-14T08:29:41.689Z,3.65
2023-05-14T08:32:27.322Z,3.50
2023-05-14T08:35:13.142Z,2.97
2023-05-14T08:37:58.487Z,3.08
2023-05-14T08:40:50.060Z,3.78
2023-05-14T08:43:41.841Z,2.72
2023-05-14T08:46:28.212Z,2.13
2023-05-14T08:49:35.312Z,3.05
2023-05-14T08:52:22.707Z,2.92
2023-05-14T08:55:09.134Z,3.35
2023-05-14T08:57:54.829Z,3.63
2023-05-14T09:00:40.247Z,2.22
2023-05-14T09:03:26.045Z,3.15
2023-05-14T09:06:11.632Z,2.80
2023-05-14T09:08:57.454Z,2.60
2023-05-14T09:11:46.779Z,3.03
2023-05-14T09:14:33.392Z,2.45
2023-05-14T09:17:19.460Z,2.42
2023-05-14T09:20:06.074Z,2.67
2023-05-14T09:22:54.874Z,1.77
2023-05-14T09:25:40.390Z,2.30
2023-05-14T09:28:28.378Z,2.33
2023-05-14T09:31:14.060Z,2.28
2023-05-14T09:34:00.154Z,3.05
2023-05-14T09:36:45.396Z,1.75
2023-05-14T09:39:33.712Z,1.85
2023-05-14T09:42:19.295Z,3.45
2023-05-14T09:45:11.324Z,1.88
2023-05-14T09:48:00.265Z,2.13
2023-05-14T09:50:46.711Z,2.00
2023-05-14T09:53:33.341Z,2.78
2023-05-14T09:56:18.783Z,2.15
2023-05-14T09:59:04.490Z,2.10
2023-05-14T10:01:50.155Z,2.25
2023-05-14T10:04:35.945Z,2.20
2023-05-14T10:07:29.464Z,2.00
2023-05-14T10:10:17.173Z,2.58
2023-05-14T10:13:09.651Z,2.42
2023-05-14T10:16:02.884Z,1.83
2023-05-14T10:18:53.532Z,1.85
2023-05-14T10:21:41.475Z,1.67
2023-05-14T10:24:27.479Z,1.55
2023-05-14T10:27:12.904Z,1.38
2023-05-14T10:29:58.196Z,1.88
2023-05-14T10:32:44.417Z,1.83
2023-05-14T10:35:29.600Z,1.75
2023-05-14T10:38:15.385Z,1.80
2023-05-14T10:41:05.307Z,0.88
2023-05-14T10:43:50.776Z,2.00
2023-05-14T10:46:36.184Z,1.40
2023-05-14T10:49:35.611Z,2.15
2023-05-14T10:52:27.117Z,2.08
2023-05-14T10:55:16.623Z,1.77
2023-05-14T10:58:04.535Z,1.67
2023-05-14T11:00:54.921Z,1.25
2023-05-14T11:03:47.027Z,1.30
2023-05-14T11:06:33.215Z,1.48
2023-05-14T11:09:19.944Z,1.00
2023-05-14T11:12:05.560Z,1.60
2023-05-14T11:14:51.053Z,0.80
2023-05-14T11:17:37.745Z,1.00
2023-05-14T11:20:23.926Z,0.70
2023-05-14T11:23:09.400Z,0.77
2023-05-14T11:25:56.172Z,1.30
2023-05-14T11:28:41.471Z,1.40
2023-05-14T11:31:26.836Z,0.93
2023-05-14T11:34:12.698Z,1.00
2023-05-14T11:36:58.451Z,0.88
2023-05-14T11:39:49.422Z,1.77
2023-05-14T11:42:34.730Z,0.90
2023-05-14T11:45:29.911Z,0.77
2023-05-14T11:48:15.501Z,0.88
2023-05-14T11:51:01.045Z,1.25
2023-05-14T11:53:47.248Z,1.20
2023-05-14T11:56:32.869Z,0.93
2023-05-14T11:59:19.422Z,1.30
2023-05-14T12:02:06.251Z,1.98
2023-05-14T12:04:54.675Z,1.20
2023-05-14T12:07:40.461Z,1.55
2023-05-14T12:10:26.217Z,1.17
2023-05-14T12:13:15.524Z,1.10
2023-05-14T12:16:02.611Z,1.50
2023-05-14T12:18:48.113Z,1.45
2023-05-14T12:21:34.768Z,1.50
2023-05-14T12:24:20.290Z,1.80
2023-05-14T12:27:07.128Z,0.88
2023-05-14T12:30:20.066Z,1.30
2023-05-14T12:33:07.187Z,1.02
2023-05-14T12:35:54.037Z,0.82
2023-05-14T12:38:41.362Z,1.60
2023-05-14T12:41:26.668Z,1.50
2023-05-14T12:44:12.272Z,1.08
2023-05-14T12:46:57.924Z,1.23
2023-05-14T12:49:43.259Z,1.63
2023-05-14T12:52:37.548Z,1.60
2023-05-14T12:55:24.605Z,0.80
2023-05-14T12:58:10.099Z,1.38
2023-05-14T13:00:56.541Z,1.35
2023-05-14T13:03:42.259Z,1.10
2023-05-14T13:06:27.841Z,1.00
2023-05-14T13:09:13.293Z,1.20
2023-05-14T13:11:59.030Z,1.25
2023-05-14T13:14:44.400Z,0.80
2023-05-14T13:17:30.480Z,1.42
2023-05-14T13:20:17.944Z,1.42
2023-05-14T13:23:03.684Z,1.38
2023-05-14T13:25:50.027Z,1.52
2023-05-14T13:28:35.701Z,1.42
2023-05-14T13:31:21.047Z,1.02
2023-05-14T13:34:06.426Z,0.90
2023-05-14T13:36:52.107Z,0.98
2023-05-14T13:39:37.337Z,0.90
2023-05-14T13:42:23.781Z,1.23
2023-05-14T13:45:09.865Z,0.77
2023-05-14T13:47:56.779Z,0.98
2023-05-14T13:50:42.062Z,0.82
2023-05-14T13:53:27.641Z,0.88
2023-05-14T13:56:13.173Z,0.82
2023-05-14T13:58:58.697Z,1.00
2023-05-14T14:01:44.457Z,1.17
2023-05-14T14:04:30.372Z,1.65
2023-05-14T14:07:15.770Z,0.93
2023-05-14T14:10:02.553Z,1.23
2023-05-14T14:12:48.889Z,1.00
2023-05-14T14:15:34.323Z,1.00
2023-05-14T14:18:19.854Z,1.02
2023-05-14T14:21:05.578Z,1.10
2023-05-14T14:23:50.884Z,1.10
2023-05-14T14:26:36.199Z,0.65
2023-05-14T14:29:24.017Z,1.50
2023-05-14T14:32:09.286Z,1.02
2023-05-14T14:34:54.899Z,1.20
2023-05-14T14:37:41.245Z,1.13
2023-05-14T14:40:26.599Z,1.52
2023-05-14T14:43:12.102Z,1.20
2023-05-14T14:45:57.481Z,1.40
2023-05-14T14:48:44.097Z,1.45
2023-05-14T14:51:30.368Z,1.20
2023-05-14T14:54:15.927Z,1.67
2023-05-14T14:57:01.261Z,1.08
2023-05-14T14:59:47.073Z,1.60
2023-05-14T15:02:32.750Z,1.30
2023-05-14T15:05:18.502Z,1.70
2023-05-14T15:08:04.506Z,1.50
2023-05-14T15:10:49.876Z,1.15
2023-05-14T15:13:35.475Z,1.13
2023-05-14T15:16:21.371Z,1.92
2023-05-14T15:19:06.842Z,2.10
2023-05-14T15:21:52.381Z,1.65
2023-05-14T15:24:38.088Z,1.40
2023-05-14T15:27:23.411Z,1.20
2023-05-14T15:30:09.368Z,1.20
2023-05-14T15:32:55.566Z,1.20
2023-05-14T15:35:41.177Z,1.92
2023-05-14T15:38:26.510Z,1.45
2023-05-14T15:41:11.789Z,1.40
2023-05-14T15:43:58.712Z,1.63
2023-05-14T15:46:44.168Z,1.65
2023-05-14T15:49:29.502Z,1.60
2023-05-14T15:52:15.281Z,1.40
2023-05-14T15:55:00.642Z,1.48
2023-05-14T15:57:46.605Z,1.10
2023-05-14T16:00:32.576Z,1.20
2023-05-14T16:03:18.147Z,1.30
2023-05-14T16:06:03.769Z,1.48
2023-05-14T16:08:49.423Z,0.80
2023-05-14T16:11:35.015Z,1.73
2023-05-14T16:14:20.759Z,1.48
2023-05-14T16:17:06.458Z,1.52
2023-05-14T16:19:52.878Z,1.25
2023-05-14T16:22:40.290Z,0.95
2023-05-14T16:25:25.545Z,1.13
2023-05-14T16:28:11.158Z,1.35
2023-05-14T16:30:56.435Z,1.05
2023-05-14T16:33:42.116Z,1.75
2023-05-14T16:36:27.682Z,1.35
2023-05-14T16:39:13.058Z,1.80
2023-05-14T16:41:58.717Z,1.67
2023-05-14T16:44:44.311Z,2.13
2023-05-14T16:47:29.692Z,1.13
2023-05-14T16:50:15.565Z,1.85
2023-05-14T16:53:00.830Z,1.02
2023-05-14T16:55:46.449Z,1.15
2023-05-14T16:58:32.084Z,1.08
2023-05-14T17:01:17.625Z,1.00
2023-05-14T17:04:02.880Z,1.08
2023-05-14T17:06:48.568Z,1.40
2023-05-14T17:09:34.306Z,1.10
2023-05-14T17:12:19.612Z,0.98
2023-05-14T17:15:08.732Z,1.42
2023-05-14T17:17:57.742Z,0.82
2023-05-14T17:20:43.321Z,1.05
2023-05-14T17:23:28.962Z,1.45
2023-05-14T17:26:14.392Z,0.98
2023-05-14T17:28:59.686Z,1.00
2023-05-14T17:31:45.494Z,1.42
2023-05-14T17:34:31.341Z,1.00
2023-05-14T17:37:16.606Z,1.25
2023-05-14T17:40:02.311Z,1.23
2023-05-14T17:42:48.054Z,1.65
2023-05-14T17:45:39.709Z,1.15
2023-05-14T17:48:28.636Z,1.58
2023-05-14T17:51:14.584Z,1.48
2023-05-14T17:54:00.275Z,1.63
2023-05-14T17:56:45.710Z,0.98
2023-05-14T17:59:31.026Z,0.77
2023-05-14T18:02:16.450Z,1.25
2023-05-14T18:05:03.245Z,1.45
2023-05-14T18:07:48.918Z,1.05
2023-05-14T18:10:34.543Z,1.05
2023-05-14T18:13:19.953Z,1.20
2023-05-14T18:16:05.516Z,1.20
2023-05-14T18:18:50.926Z,1.88
2023-05-14T18:21:36.196Z,1.05
2023-05-14T18:24:22.237Z,1.85
2023-05-14T18:27:08.453Z,0.80
2023-05-14T18:29:53.679Z,1.17
2023-05-14T18:32:40.256Z,1.35
2023-05-14T18:35:26.328Z,0.93
2023-05-14T18:38:16.273Z,1.13
2023-05-14T18:41:01.681Z,0.60
2023-05-14T18:43:47.352Z,1.27
2023-05-14T18:46:32.671Z,0.82
2023-05-14T18:49:18.258Z,0.85
2023-05-14T18:52:03.542Z,1.00
2023-05-14T18:54:49.059Z,0.93
2023-05-14T18:57:34.785Z,2.00
2023-05-14T19:00:21.529Z,1.05
2023-05-14T19:03:07.189Z,1.65
2023-05-14T19:05:53.770Z,1.70
2023-05-14T19:08:39.216Z,0.98
2023-05-14T19:11:24.650Z,1.23
2023-05-14T19:14:10.024Z,1.40
2023-05-14T19:16:56.036Z,1.15
2023-05-14T19:19:41.494Z,1.13
2023-05-14T19:22:27.188Z,0.88
2023-05-14T19:25:12.515Z,1.00
2023-05-14T19:27:58.315Z,1.15
2023-05-14T19:30:43.717Z,0.70
2023-05-14T19:33:29.652Z,1.30
2023-05-14T19:36:15.033Z,0.70
2023-05-14T19:39:00.725Z,1.40
2023-05-14T19:41:46.171Z,1.45
2023-05-14T19:44:32.130Z,1.15
2023-05-14T19:47:17.634Z,1.08
2023-05-14T19:50:03.175Z,0.70
2023-05-14T19:52:50.257Z,1.00
2023-05-14T19:55:35.502Z,1.50
2023-05-14T19:58:21.008Z,1.10
2023-05-14T20:01:06.526Z,1.52
2023-05-14T20:03:52.003Z,0.80
2023-05-14T20:06:38.320Z,1.27
2023-05-14T20:09:23.977Z,0.95
2023-05-14T20:12:09.633Z,1.05
2023-05-14T20:14:55.159Z,1.30
2023-05-14T20:17:40.605Z,0.90
2023-05-14T20:20:28.861Z,1.20
2023-05-14T20:23:15.935Z,1.75
2023-05-14T20:26:04.284Z,1.23
2023-05-14T20:28:49.934Z,1.17
2023-05-14T20:31:35.272Z,0.88
2023-05-14T20:34:20.665Z,1.52
2023-05-14T20:37:06.887Z,1.50
2023-05-14T20:39:53.272Z,1.38
2023-05-14T20:42:39.123Z,1.50
2023-05-14T20:45:25.082Z,1.60
2023-05-14T20:48:12.979Z,0.80
2023-05-14T20:50:58.603Z,1.60
2023-05-14T20:53:47.327Z,0.90
2023-05-14T20:56:33.310Z,1.48
2023-05-14T20:59:18.806Z,0.95
2023-05-14T21:02:04.659Z,1.23
2023-05-14T21:04:50.592Z,1.02
2023-05-14T21:07:37.430Z,1.02
2023-05-14T21:10:24.173Z,0.93
2023-05-14T21:13:09.596Z,1.65
2023-05-14T21:15:55.259Z,1.92
2023-05-14T21:18:40.940Z,1.35
2023-05-14T21:21:27.290Z,0.85
2023-05-14T21:24:12.681Z,1.42
2023-05-14T21:26:58.013Z,1.85
2023-05-14T21:29:46.332Z,1.33
2023-05-14T21:32:32.219Z,1.33
2023-05-14T21:35:18.095Z,1.77
2023-05-14T21:38:03.544Z,1.50
2023-05-14T21:40:48.866Z,2.30
2023-05-14T21:43:35.339Z,1.48
2023-05-14T21:46:20.798Z,1.38
2023-05-14T21:49:06.156Z,2.75
2023-05-14T21:51:54.360Z,1.55
2023-05-14T21:54:39.864Z,1.52
2023-05-14T21:57:28.245Z,1.33
2023-05-14T22:00:18.606Z,1.77
2023-05-14T22:03:04.364Z,2.55
2023-05-14T22:05:49.841Z,2.47
2023-05-14T22:08:35.527Z,2.50
2023-05-14T22:11:21.979Z,2.05
2023-05-14T22:14:07.515Z,2.60
2023-05-14T22:16:53.196Z,2.25
2023-05-14T22:19:38.917Z,2.10
2023-05-14T22:22:24.567Z,1.80
2023-05-14T22:25:10.594Z,1.73
2023-05-14T22:27:56.115Z,1.83
2023-05-14T22:30:41.832Z,2.38
2023-05-14T22:33:27.545Z,1.95
2023-05-14T22:36:13.038Z,1.35
2023-05-14T22:38:59.668Z,2.60
2023-05-14T22:41:44.862Z,2.13
2023-05-14T22:44:30.522Z,2.33
2023-05-14T22:47:16.584Z,2.58
2023-05-14T22:50:02.326Z,2.58
2023-05-14T22:52:47.808Z,2.25
2023-05-14T22:55:33.592Z,2.85
2023-05-14T22:58:18.785Z,1.67
2023-05-14T23:01:04.431Z,2.50
2023-05-14T23:03:49.960Z,2.58
2023-05-14T23:06:35.866Z,1.95
2023-05-14T23:09:21.259Z,1.60
2023-05-14T23:12:07.202Z,2.60
2023-05-14T23:14:52.667Z,2.38
2023-05-14T23:17:39.959Z,1.58
2023-05-14T23:20:25.784Z,2.22
2023-05-14T23:23:11.353Z,2.08
2023-05-14T23:25:57.073Z,1.88
2023-05-14T23:28:42.529Z,2.53
2023-05-14T23:31:28.100Z,2.70
2023-05-14T23:34:14.110Z,3.15
2023-05-14T23:36:59.388Z,1.90
2023-05-14T23:39:45.145Z,2.53
2023-05-14T23:42:30.635Z,2.55
2023-05-14T23:45:16.144Z,3.30
2023-05-14T23:48:01.889Z,3.05
2023-05-14T23:50:47.268Z,2.28
2023-05-14T23:53:32.796Z,3.17
2023-05-14T23:56:18.590Z,2.60
2023-05-14T23:59:03.987Z,2.47
